Flight Number: EUR1105 Duration: 0:50
Departure: Gatwick Airport (EGKK) at 08:00 Distance: 164 Nm
Arrival: Liverpool Airport (EGGP) at 08:50 Equipment: DHC8

Weather Information
404 Not Found

Not Found

The requested URL /data/observations/metar/decoded/EGKK.TXT was not found on this server.


Sunrise: 04:06 Sunset: 19:47 (UTC)

404 Not Found

Not Found

The requested URL /data/observations/metar/decoded/EGGP.TXT was not found on this server.


Sunrise: 04:07 Sunset: 20:08 (UTC)

TAF:2018/05/20 12:15 TAF EGGP 201059Z 2012/2112 18010KT CAVOK BECMG 2015/2018 35010KT BECMG 2021/2024 13005KT PROB30 2101/2109 6000

Previous Pireps for this route
Date Aircraft Flight time Fuel used Landing rate On time
2013-09-18DHC800.5321550No
2013-09-19DHC801.00618-6No
2013-09-29DHC80206780No
2013-11-10B1900D01.080-644No
2014-01-23B1900D02.08634-207No
2014-04-20B1900D1.026750No
2015-02-07B1900D0.516680Charter
2015-02-08B7370.3844570Charter
2015-02-19CRJ70001.135641-205Charter
2015-03-08B1900D0.56690Yes
2015-04-06B1900D01.16636-115Yes
2015-04-26B73700.495203-11Charter
2015-05-19B1900D00.56698-175Yes
2015-06-19B1900D1.387930No
2015-06-20B1900D1.492840No
2015-07-25B1900D00.57721-507Charter
2016-01-25CRJ70000.362069-222Charter
2016-03-15A3211.0168990Charter
2016-11-18DHC81.032790Yes
2016-12-18B7370.5070000Charter
(pireps marked green are flown by you)

Route map